Time;durP1;ratioP1;P1;durP2;ratioP2;P2;SDS_P1;SDS_P2;PMS_P1;PMS_P2;Temp;Humidity;BMP_temperature;BMP_pressure;BME280_temperature;BME280_humidity;BME280_pressure;Samples;Min_cycle;Max_cycle;Signal;HPM_P1;HPM_P2
2022/03/24 00:00:17;;;;;;;22.70;20.57;;;;;21.40;101773.00;;;;2080033;28;20231;-46
2022/03/24 00:01:18;;;;;;;23.53;20.87;;;;;21.40;101774.00;;;;2079891;28;20217;-46
2022/03/24 00:02:18;;;;;;;22.17;20.00;;;;;21.40;101767.00;;;;2076737;28;20221;-46
2022/03/24 00:03:18;;;;;;;21.93;19.83;;;;;21.40;101774.00;;;;2071282;28;20237;-46
2022/03/24 00:04:19;;;;;;;24.23;21.90;;;;;21.40;101770.00;;;;2072773;28;20233;-46
2022/03/24 00:05:19;;;;;;;22.10;19.90;;;;;21.40;101768.00;;;;2079471;28;20217;-45
2022/03/24 00:06:20;;;;;;;23.30;21.07;;;;;21.40;101753.00;;;;2079730;28;20226;-46
2022/03/24 00:07:20;;;;;;;22.60;20.40;;;;;21.40;101764.00;;;;2079216;28;20205;-46
2022/03/24 00:08:20;;;;;;;22.30;20.20;;;;;21.40;101765.00;;;;2079284;28;20287;-45
2022/03/24 00:09:21;;;;;;;22.03;19.77;;;;;21.40;101762.00;;;;2072499;28;20217;-46
2022/03/24 00:10:21;;;;;;;23.07;20.80;;;;;21.40;101765.00;;;;2084700;28;20244;-45
2022/03/24 00:11:21;;;;;;;22.17;19.70;;;;;21.40;101765.00;;;;2075533;28;20711;-45
2022/03/24 00:12:22;;;;;;;22.20;20.10;;;;;21.30;101763.00;;;;2071731;28;20218;-46
2022/03/24 00:13:22;;;;;;;22.30;20.07;;;;;21.40;101766.00;;;;2071036;28;20238;-45
2022/03/24 00:14:23;;;;;;;21.73;19.53;;;;;21.40;101763.00;;;;2079824;28;20305;-46
2022/03/24 00:15:23;;;;;;;22.40;20.20;;;;;21.30;101758.00;;;;2079219;28;20209;-46
2022/03/24 00:16:23;;;;;;;21.40;19.30;;;;;21.40;101770.00;;;;2075568;28;20626;-46
2022/03/24 00:17:24;;;;;;;21.53;19.27;;;;;21.40;101772.00;;;;2071694;28;20215;-46
2022/03/24 00:18:25;;;;;;;21.23;19.23;;;;;21.40;101768.00;;;;2071848;28;20890;-46
2022/03/24 00:19:26;;;;;;;22.10;20.00;;;;;21.40;101767.00;;;;2071874;28;20218;-46
2022/03/24 00:20:26;;;;;;;21.70;19.40;;;;;21.40;101763.00;;;;2071665;28;20214;-45
2022/03/24 00:21:27;;;;;;;21.23;19.10;;;;;21.30;101767.00;;;;2071758;28;20636;-46
2022/03/24 00:22:27;;;;;;;21.53;19.43;;;;;21.30;101760.00;;;;2077641;28;20282;-46
2022/03/24 00:23:27;;;;;;;22.23;20.00;;;;;21.30;101763.00;;;;2079646;28;20214;-46
2022/03/24 00:24:28;;;;;;;22.87;20.43;;;;;21.30;101762.00;;;;2079603;28;20264;-46
2022/03/24 00:25:28;;;;;;;20.60;18.60;;;;;21.30;101762.00;;;;2078874;28;20225;-45
2022/03/24 00:26:29;;;;;;;19.90;18.00;;;;;21.30;101761.00;;;;2079686;28;20220;-46
2022/03/24 00:27:29;;;;;;;19.30;17.40;;;;;21.30;101753.00;;;;2079776;28;20241;-46
2022/03/24 00:28:31;;;;;;;19.30;17.43;;;;;21.30;101755.00;;;;2072492;28;20218;-46
2022/03/24 00:29:31;;;;;;;20.25;18.33;;;;;21.30;101756.00;;;;2073009;28;20210;-46
2022/03/24 00:30:32;;;;;;;21.30;19.20;;;;;21.30;101760.00;;;;2079794;28;20213;-46
2022/03/24 00:31:32;;;;;;;20.33;17.90;;;;;21.30;101758.00;;;;2079417;28;20225;-46
2022/03/24 00:32:32;;;;;;;20.20;18.30;;;;;21.30;101756.00;;;;2078446;28;20213;-46
2022/03/24 00:33:33;;;;;;;19.83;17.83;;;;;21.30;101748.00;;;;2071976;28;20796;-46
2022/03/24 00:34:33;;;;;;;19.97;17.97;;;;;21.30;101752.00;;;;2074932;28;20831;-47
2022/03/24 00:35:33;;;;;;;19.70;17.90;;;;;21.30;101751.00;;;;2073512;28;20214;-46
2022/03/24 00:36:34;;;;;;;19.50;17.60;;;;;21.30;101763.00;;;;2071344;28;20249;-47
2022/03/24 00:37:34;;;;;;;18.70;16.90;;;;;21.30;101755.00;;;;2071529;28;20214;-48
2022/03/24 00:38:36;;;;;;;19.97;17.97;;;;;21.30;101754.00;;;;2071654;28;20465;-48
2022/03/24 00:39:36;;;;;;;19.48;17.58;;;;;21.30;101755.00;;;;2071321;28;20210;-54
2022/03/24 00:40:36;;;;;;;19.07;17.17;;;;;21.30;101753.00;;;;2071374;28;20214;-52
2022/03/24 00:41:37;;;;;;;19.53;17.63;;;;;21.30;101749.00;;;;2071548;28;20210;-50
2022/03/24 00:42:37;;;;;;;18.83;17.10;;;;;21.30;101753.00;;;;2072944;28;20210;-49
2022/03/24 00:43:38;;;;;;;20.50;18.40;;;;;21.30;101745.00;;;;2079560;28;20221;-49
2022/03/24 00:44:42;;;;;;;19.47;17.60;;;;;21.30;101748.00;;;;2079048;28;20228;-48
2022/03/24 00:45:42;;;;;;;19.40;17.60;;;;;21.30;101751.00;;;;2078000;28;20212;-47
2022/03/24 00:46:43;;;;;;;20.20;18.30;;;;;21.30;101745.00;;;;2073433;28;20217;-48
2022/03/24 00:47:44;;;;;;;18.57;16.67;;;;;21.30;101752.00;;;;2078961;28;20210;-47
2022/03/24 00:48:44;;;;;;;19.37;17.37;;;;;21.30;101745.00;;;;2079575;28;20221;-48
2022/03/24 00:49:47;;;;;;;19.03;17.33;;;;;21.30;101755.00;;;;2079590;28;20260;-48
2022/03/24 00:50:47;;;;;;;18.42;16.60;;;;;21.30;101756.00;;;;2077699;28;20214;-48
2022/03/24 00:51:48;;;;;;;20.00;18.00;;;;;21.30;101746.00;;;;2079479;28;20221;-48
2022/03/24 00:52:49;;;;;;;19.40;17.50;;;;;21.30;101749.00;;;;2079333;28;20217;-47
2022/03/24 00:53:50;;;;;;;20.00;18.00;;;;;21.30;101745.00;;;;2079396;28;20475;-48
2022/03/24 00:54:50;;;;;;;18.33;16.53;;;;;21.30;101754.00;;;;2079634;28;20559;-48
2022/03/24 00:55:50;;;;;;;18.60;16.90;;;;;21.30;101754.00;;;;2079077;28;20220;-48
2022/03/24 00:56:51;;;;;;;18.87;17.00;;;;;21.20;101759.00;;;;2075933;28;20218;-48
2022/03/24 00:57:53;;;;;;;19.50;17.40;;;;;21.30;101747.00;;;;2075761;28;20213;-48
2022/03/24 00:58:53;;;;;;;17.70;16.00;;;;;21.30;101754.00;;;;2079473;28;20213;-48
2022/03/24 00:59:53;;;;;;;19.70;17.77;;;;;21.20;101754.00;;;;2079285;28;20304;-48
2022/03/24 01:00:54;;;;;;;18.27;16.27;;;;;21.20;101752.00;;;;2079410;28;20237;-48
2022/03/24 01:01:55;;;;;;;18.80;16.93;;;;;21.20;101749.00;;;;2071435;28;20218;-48
2022/03/24 01:02:55;;;;;;;17.97;16.20;;;;;21.20;101750.00;;;;2071295;28;20210;-48
2022/03/24 01:03:56;;;;;;;17.30;15.60;;;;;21.20;101753.00;;;;2071368;28;20308;-47
2022/03/24 01:04:56;;;;;;;19.47;17.43;;;;;21.20;101746.00;;;;2071296;28;20230;-48
2022/03/24 01:05:57;;;;;;;18.07;16.40;;;;;21.20;101748.00;;;;2070921;28;20484;-48
2022/03/24 01:06:57;;;;;;;17.93;16.20;;;;;21.20;101755.00;;;;2071190;28;20218;-47
2022/03/24 01:07:57;;;;;;;18.00;16.30;;;;;21.20;101749.00;;;;2071284;28;20233;-48
2022/03/24 01:08:58;;;;;;;16.90;15.23;;;;;21.20;101748.00;;;;2071326;28;20229;-47
2022/03/24 01:09:58;;;;;;;17.63;15.83;;;;;21.20;101750.00;;;;2070509;28;20254;-48
2022/03/24 01:10:59;;;;;;;18.00;16.30;;;;;21.20;101752.00;;;;2070632;28;20218;-48
2022/03/24 01:12:02;;;;;;;16.80;15.20;;;;;21.10;101745.00;;;;2077473;28;20217;-48
2022/03/24 01:13:03;;;;;;;18.35;16.65;;;;;21.20;101745.00;;;;2079645;28;20876;-47
2022/03/24 01:14:05;;;;;;;18.07;16.20;;;;;21.20;101745.00;;;;2075326;28;20213;-47
2022/03/24 01:15:07;;;;;;;17.85;16.23;;;;;21.20;101744.00;;;;2073219;28;20875;-47
2022/03/24 01:16:08;;;;;;;19.17;17.17;;;;;21.20;101752.00;;;;2079192;28;20317;-47
2022/03/24 01:17:10;;;;;;;16.67;15.07;;;;;21.20;101742.00;;;;2072009;28;20218;-47
2022/03/24 01:18:14;;;;;;;17.33;15.70;;;;;21.20;101740.00;;;;2071551;28;20214;-47
2022/03/24 01:19:14;;;;;;;17.23;15.40;;;;;21.20;101742.00;;;;2073117;28;20211;-48
2022/03/24 01:20:16;;;;;;;17.50;15.80;;;;;21.20;101750.00;;;;2075448;28;20268;-48
2022/03/24 01:21:16;;;;;;;17.33;15.63;;;;;21.20;101744.00;;;;2072296;28;20210;-47
2022/03/24 01:22:17;;;;;;;17.77;16.07;;;;;21.20;101746.00;;;;2079390;28;20221;-48
2022/03/24 01:23:17;;;;;;;17.13;15.53;;;;;21.20;101741.00;;;;2079233;28;20201;-48
2022/03/24 01:24:18;;;;;;;16.70;14.90;;;;;21.20;101737.00;;;;2079162;28;20293;-48
2022/03/24 01:25:18;;;;;;;16.47;14.77;;;;;21.20;101746.00;;;;2078564;28;20392;-47
2022/03/24 01:26:18;;;;;;;17.40;15.70;;;;;21.20;101742.00;;;;2079062;28;20228;-48
2022/03/24 01:27:19;;;;;;;17.50;15.57;;;;;21.20;101744.00;;;;2079199;28;20293;-48
2022/03/24 01:28:19;;;;;;;16.53;14.93;;;;;21.20;101734.00;;;;2079351;28;20697;-48
2022/03/24 01:29:21;;;;;;;16.67;15.10;;;;;21.20;101734.00;;;;2078394;28;20217;-48
2022/03/24 01:30:21;;;;;;;16.58;15.05;;;;;21.20;101732.00;;;;2079297;28;20213;-47
2022/03/24 01:31:22;;;;;;;16.67;15.07;;;;;21.20;101736.00;;;;2078966;28;20655;-48
2022/03/24 01:32:22;;;;;;;17.33;15.73;;;;;21.20;101723.00;;;;2079415;28;20279;-47
2022/03/24 01:33:23;;;;;;;16.57;15.00;;;;;21.20;101729.00;;;;2078869;28;20301;-47
2022/03/24 01:34:24;;;;;;;15.80;14.37;;;;;21.10;101730.00;;;;2079166;28;20214;-48
2022/03/24 01:35:25;;;;;;;16.42;14.82;;;;;21.10;101728.00;;;;2078486;28;20206;-48
2022/03/24 01:36:25;;;;;;;15.30;14.00;;;;;21.20;101739.00;;;;2079119;28;20202;-48
2022/03/24 01:37:25;;;;;;;16.67;15.10;;;;;21.10;101726.00;;;;2078869;28;20209;-48
2022/03/24 01:38:26;;;;;;;16.60;15.10;;;;;21.10;101730.00;;;;2079143;28;20225;-48
2022/03/24 01:39:26;;;;;;;17.80;16.03;;;;;21.10;101724.00;;;;2079346;28;20702;-48
2022/03/24 01:40:26;;;;;;;16.73;14.33;;;;;21.20;101740.00;;;;2079202;28;20965;-48
2022/03/24 01:41:27;;;;;;;16.10;14.60;;;;;21.10;101727.00;;;;2078794;28;20271;-48
2022/03/24 01:42:27;;;;;;;17.17;15.60;;;;;21.10;101732.00;;;;2079167;28;20732;-48
2022/03/24 01:43:27;;;;;;;16.10;14.60;;;;;21.10;101736.00;;;;2079225;28;20705;-48
2022/03/24 01:44:28;;;;;;;16.70;15.10;;;;;21.10;101731.00;;;;2079064;28;20735;-48
2022/03/24 01:45:30;;;;;;;16.40;14.77;;;;;21.10;101687.00;;;;2078736;28;20766;-48
2022/03/24 01:46:30;;;;;;;16.38;14.85;;;;;21.10;101728.00;;;;2079198;28;20584;-48
2022/03/24 01:47:30;;;;;;;16.07;14.57;;;;;21.10;101721.00;;;;2078857;28;20301;-48
2022/03/24 01:48:31;;;;;;;15.60;14.03;;;;;21.10;101728.00;;;;2072609;28;20297;-48
2022/03/24 01:49:34;;;;;;;16.77;15.07;;;;;21.10;101724.00;;;;2070136;28;20214;-47
2022/03/24 01:50:40;;;;;;;15.57;14.18;;;;;21.10;101730.00;;;;2075353;28;20213;-47
2022/03/24 01:51:40;;;;;;;16.10;14.60;;;;;21.10;101723.00;;;;2073980;28;20768;-48
2022/03/24 01:52:40;;;;;;;15.40;14.00;;;;;21.10;101729.00;;;;2070841;28;20300;-47
2022/03/24 01:53:41;;;;;;;15.73;14.30;;;;;21.10;101733.00;;;;2070709;28;20317;-47
2022/03/24 01:54:43;;;;;;;16.93;14.47;;;;;21.10;101724.00;;;;2071029;28;20207;-48
2022/03/24 01:55:44;;;;;;;16.38;14.82;;;;;21.10;101728.00;;;;2070582;28;20689;-47
2022/03/24 01:56:45;;;;;;;15.57;14.17;;;;;21.10;101729.00;;;;2064688;28;20221;-48
2022/03/24 01:57:45;;;;;;;16.53;14.30;;;;;21.10;101729.00;;;;2069870;28;20241;-47
2022/03/24 01:58:45;;;;;;;16.57;14.97;;;;;21.10;101719.00;;;;2062597;28;20214;-47
2022/03/24 01:59:46;;;;;;;14.80;13.40;;;;;21.10;101725.00;;;;2073915;28;20316;-47
2022/03/24 02:00:46;;;;;;;15.57;14.03;;;;;21.10;101716.00;;;;2079127;28;20224;-47
2022/03/24 02:01:47;;;;;;;15.63;14.13;;;;;21.10;101727.00;;;;2079043;28;20287;-47
2022/03/24 02:02:48;;;;;;;16.10;14.50;;;;;21.10;101724.00;;;;2073918;28;20588;-47
2022/03/24 02:03:48;;;;;;;15.95;14.45;;;;;21.10;101717.00;;;;2077176;28;20217;-47
2022/03/24 02:04:49;;;;;;;15.27;13.87;;;;;21.10;101730.00;;;;2075224;28;20541;-48
2022/03/24 02:05:49;;;;;;;16.37;14.87;;;;;21.10;101726.00;;;;2071293;28;20222;-49
2022/03/24 02:06:51;;;;;;;15.50;13.93;;;;;21.10;101719.00;;;;2078424;28;20241;-51
2022/03/24 02:07:52;;;;;;;15.68;14.07;;;;;21.10;101721.00;;;;2078967;28;20214;-48
2022/03/24 02:08:52;;;;;;;15.97;14.40;;;;;21.10;101723.00;;;;2078939;28;20214;-48
2022/03/24 02:09:53;;;;;;;16.33;14.83;;;;;21.00;101724.00;;;;2078216;28;20214;-49
2022/03/24 02:10:53;;;;;;;15.30;14.00;;;;;21.10;101720.00;;;;2070362;28;20733;-47
2022/03/24 02:11:54;;;;;;;16.07;14.50;;;;;21.10;101720.00;;;;2072549;28;20848;-47
2022/03/24 02:12:56;;;;;;;15.57;14.03;;;;;21.10;101719.00;;;;2067834;28;20591;-47
2022/03/24 02:13:57;;;;;;;14.90;13.45;;;;;21.10;101731.00;;;;2070190;28;20218;-47
2022/03/24 02:14:59;;;;;;;14.90;13.60;;;;;21.10;101724.00;;;;2070955;28;20224;-47
2022/03/24 02:16:01;;;;;;;16.25;14.65;;;;;21.10;101727.00;;;;2070399;28;20214;-48
2022/03/24 02:17:01;;;;;;;15.43;14.02;;;;;21.10;101729.00;;;;2070344;28;20574;-47
2022/03/24 02:18:01;;;;;;;14.27;12.90;;;;;21.00;101726.00;;;;2070705;28;20223;-48
2022/03/24 02:19:12;;;;;;;15.10;13.67;;;;;21.10;101722.00;;;;2065526;28;20241;-47
2022/03/24 02:20:12;;;;;;;15.18;13.80;;;;;21.10;101721.00;;;;2070706;28;20748;-48
2022/03/24 02:21:15;;;;;;;15.60;14.10;;;;;21.00;101727.00;;;;2070689;28;20222;-48
2022/03/24 02:22:15;;;;;;;15.55;14.05;;;;;21.00;101724.00;;;;2070385;28;20218;-47
2022/03/24 02:23:16;;;;;;;15.23;13.75;;;;;21.10;101755.00;;;;2070322;28;20229;-47
2022/03/24 02:24:17;;;;;;;15.60;14.13;;;;;21.00;101722.00;;;;2070212;28;20682;-47
2022/03/24 02:25:17;;;;;;;15.43;13.98;;;;;21.00;101714.00;;;;2070050;28;20715;-48
2022/03/24 02:26:18;;;;;;;15.03;13.63;;;;;21.00;101719.00;;;;2070057;28;20218;-47
2022/03/24 02:27:18;;;;;;;14.87;13.47;;;;;21.00;101714.00;;;;2069846;28;20249;-47
2022/03/24 02:28:18;;;;;;;15.43;13.93;;;;;21.00;101712.00;;;;2069656;28;20728;-47
2022/03/24 02:29:19;;;;;;;14.70;13.30;;;;;21.00;101710.00;;;;2070075;28;20261;-47
2022/03/24 02:30:20;;;;;;;14.48;13.07;;;;;21.00;101713.00;;;;2071360;28;20220;-47
2022/03/24 02:31:21;;;;;;;14.83;13.53;;;;;21.00;101714.00;;;;2071388;28;20218;-47
2022/03/24 02:32:21;;;;;;;14.75;13.35;;;;;21.00;101710.00;;;;2071553;28;20913;-47
2022/03/24 02:33:22;;;;;;;14.47;13.07;;;;;21.00;101706.00;;;;2068493;28;20268;-48
2022/03/24 02:34:38;;;;;;;14.57;13.27;;;;;21.00;101705.00;;;;2069372;28;20207;-48
2022/03/24 02:35:38;;;;;;;14.48;13.07;;;;;20.80;101711.00;;;;2072803;28;20942;-48
2022/03/24 02:36:39;;;;;;;15.03;13.63;;;;;21.00;101707.00;;;;2078743;28;20213;-48
2022/03/24 02:37:40;;;;;;;14.63;13.33;;;;;21.00;101706.00;;;;2077580;28;20217;-48
2022/03/24 02:38:40;;;;;;;14.43;13.13;;;;;21.00;101717.00;;;;2077810;28;20659;-47
2022/03/24 02:39:42;;;;;;;13.63;12.43;;;;;21.00;101707.00;;;;2078428;28;20465;-48
2022/03/24 02:40:43;;;;;;;13.93;12.70;;;;;21.00;101710.00;;;;2078778;28;20274;-47
2022/03/24 02:41:46;;;;;;;14.65;13.10;;;;;21.00;101710.00;;;;2078055;28;20686;-47
2022/03/24 02:42:46;;;;;;;14.93;13.63;;;;;21.00;101710.00;;;;2078530;28;20290;-48
2022/03/24 02:43:47;;;;;;;14.33;12.87;;;;;21.00;101709.00;;;;2078562;28;20225;-47
2022/03/24 02:44:49;;;;;;;14.43;13.03;;;;;21.00;101718.00;;;;2078803;28;20313;-47
2022/03/24 02:45:50;;;;;;;14.90;13.57;;;;;21.00;101700.00;;;;2077923;28;20221;-47
2022/03/24 02:46:51;;;;;;;14.45;13.10;;;;;21.00;101713.00;;;;2078043;28;20229;-47
2022/03/24 02:47:52;;;;;;;14.23;12.85;;;;;21.00;101710.00;;;;2067573;28;20248;-47
2022/03/24 02:48:52;;;;;;;14.77;13.43;;;;;21.00;101710.00;;;;2086217;28;20228;-47
2022/03/24 02:49:54;;;;;;;15.00;13.50;;;;;21.00;101715.00;;;;2079408;28;20840;-47
2022/03/24 02:50:56;;;;;;;14.02;12.73;;;;;21.00;101715.00;;;;2078771;28;20222;-47
2022/03/24 02:51:58;;;;;;;14.77;13.48;;;;;21.00;101713.00;;;;2078655;28;20302;-47
2022/03/24 02:52:59;;;;;;;14.15;12.82;;;;;21.00;101722.00;;;;2078577;28;20210;-48
2022/03/24 02:54:00;;;;;;;14.70;13.30;;;;;21.00;101713.00;;;;2078580;28;20210;-47
2022/03/24 02:55:00;;;;;;;15.27;13.87;;;;;21.00;101701.00;;;;2078492;28;20237;-47
2022/03/24 02:56:00;;;;;;;14.90;13.50;;;;;21.00;101712.00;;;;2077223;28;20228;-48
2022/03/24 02:57:01;;;;;;;14.20;12.90;;;;;21.00;101708.00;;;;2078956;28;20209;-47
2022/03/24 02:58:02;;;;;;;15.95;14.45;;;;;21.00;101712.00;;;;2079130;28;20225;-48
2022/03/24 02:59:04;;;;;;;14.37;13.07;;;;;21.00;101717.00;;;;2079057;28;20301;-47
2022/03/24 03:00:06;;;;;;;15.35;13.95;;;;;21.00;101717.00;;;;2078900;28;20253;-47
2022/03/24 03:01:06;;;;;;;13.63;12.40;;;;;20.90;101711.00;;;;2078815;28;20229;-47
2022/03/24 03:02:14;;;;;;;13.80;12.30;;;;;21.00;101713.00;;;;2079232;28;20206;-47
2022/03/24 03:03:14;;;;;;;14.20;12.93;;;;;21.00;101717.00;;;;2079099;28;20229;-47
2022/03/24 03:04:14;;;;;;;14.97;13.47;;;;;20.70;101718.00;;;;2079058;28;20221;-47
2022/03/24 03:05:15;;;;;;;13.63;12.47;;;;;21.00;101713.00;;;;2079080;28;20239;-47
2022/03/24 03:06:16;;;;;;;14.30;13.00;;;;;21.00;101715.00;;;;2078568;28;20216;-47
2022/03/24 03:07:16;;;;;;;14.63;13.33;;;;;20.90;101717.00;;;;2078419;28;20479;-47
2022/03/24 03:08:19;;;;;;;15.30;13.80;;;;;20.90;101715.00;;;;2078490;28;20240;-47
2022/03/24 03:09:19;;;;;;;14.55;13.25;;;;;20.90;101714.00;;;;2078880;28;20205;-47
2022/03/24 03:10:19;;;;;;;14.23;12.83;;;;;20.90;101711.00;;;;2078440;28;20267;-47
2022/03/24 03:11:23;;;;;;;13.80;12.40;;;;;21.00;101716.00;;;;2078557;28;20222;-47
2022/03/24 03:12:26;;;;;;;15.00;13.40;;;;;20.90;101716.00;;;;2078991;28;20669;-47
2022/03/24 03:13:27;;;;;;;13.30;12.10;;;;;20.90;101716.00;;;;2079433;28;20271;-47
2022/03/24 03:14:29;;;;;;;14.48;13.15;;;;;20.90;101715.00;;;;2079010;28;20291;-47
2022/03/24 03:15:29;;;;;;;15.43;14.02;;;;;20.90;101720.00;;;;2078515;28;20296;-47
2022/03/24 03:16:29;;;;;;;16.00;14.30;;;;;20.90;101720.00;;;;2079076;28;20256;-48
2022/03/24 03:17:30;;;;;;;14.87;13.47;;;;;20.90;101717.00;;;;2078753;28;20263;-47
2022/03/24 03:18:33;;;;;;;13.90;12.60;;;;;20.90;101721.00;;;;2079130;28;20271;-48
2022/03/24 03:19:34;;;;;;;13.98;12.65;;;;;20.90;101716.00;;;;2077958;28;20225;-48
2022/03/24 03:20:36;;;;;;;13.13;11.93;;;;;20.90;101715.00;;;;2077982;28;20782;-48
2022/03/24 03:21:36;;;;;;;12.80;11.57;;;;;20.90;101717.00;;;;2077402;28;20221;-47
2022/03/24 03:22:37;;;;;;;13.67;12.40;;;;;20.90;101718.00;;;;2078054;28;20305;-47
2022/03/24 03:23:40;;;;;;;14.53;13.13;;;;;20.90;101716.00;;;;2070719;28;20213;-47
2022/03/24 03:24:40;;;;;;;13.48;12.18;;;;;20.90;101716.00;;;;2073334;28;20225;-47
2022/03/24 03:25:41;;;;;;;13.63;12.40;;;;;20.90;101718.00;;;;2075702;28;20239;-47
2022/03/24 03:26:42;;;;;;;14.60;13.30;;;;;20.90;101721.00;;;;2078938;28;20216;-47
2022/03/24 03:27:42;;;;;;;13.70;12.50;;;;;20.90;101721.00;;;;2070950;28;20210;-48
2022/03/24 03:28:42;;;;;;;13.97;12.77;;;;;20.90;101722.00;;;;2070509;28;20214;-48
2022/03/24 03:29:43;;;;;;;14.60;13.30;;;;;20.90;101720.00;;;;2071136;28;20206;-47
2022/03/24 03:30:43;;;;;;;14.00;12.63;;;;;20.90;101719.00;;;;2071006;28;20206;-47
2022/03/24 03:31:44;;;;;;;13.70;12.50;;;;;20.90;101721.00;;;;2071243;28;20609;-47
2022/03/24 03:32:44;;;;;;;13.30;12.00;;;;;20.90;101725.00;;;;2071134;28;20545;-47
2022/03/24 03:33:44;;;;;;;13.90;12.70;;;;;20.90;101724.00;;;;2071267;28;21024;-47
2022/03/24 03:34:45;;;;;;;14.00;12.80;;;;;20.90;101724.00;;;;2072687;28;20214;-47
2022/03/24 03:35:45;;;;;;;14.07;12.60;;;;;20.90;101722.00;;;;2072073;28;20242;-47
2022/03/24 03:36:45;;;;;;;14.07;12.70;;;;;20.90;101716.00;;;;2072223;28;20280;-48
2022/03/24 03:37:46;;;;;;;13.77;12.60;;;;;20.90;101715.00;;;;2071228;28;20232;-48
2022/03/24 03:38:46;;;;;;;13.67;12.37;;;;;20.90;101718.00;;;;2071307;28;20210;-48
2022/03/24 03:39:47;;;;;;;14.07;12.77;;;;;20.90;101727.00;;;;2071324;28;20206;-48
2022/03/24 03:40:47;;;;;;;14.97;13.57;;;;;20.90;101717.00;;;;2078714;28;20456;-47
2022/03/24 03:41:48;;;;;;;15.23;13.67;;;;;20.90;101723.00;;;;2080503;28;20962;-47
2022/03/24 03:42:51;;;;;;;15.00;13.60;;;;;20.90;101713.00;;;;2081293;28;20562;-47
2022/03/24 03:43:51;;;;;;;13.75;12.38;;;;;20.90;101722.00;;;;2081013;28;20459;-47
2022/03/24 03:44:52;;;;;;;14.20;12.90;;;;;20.90;101714.00;;;;2080915;28;20240;-47
2022/03/24 03:45:52;;;;;;;14.67;13.27;;;;;20.90;101720.00;;;;2079404;28;20205;-47
2022/03/24 03:46:52;;;;;;;13.50;12.30;;;;;20.90;101710.00;;;;2080615;28;20209;-47
2022/03/24 03:47:53;;;;;;;13.83;12.57;;;;;20.90;101718.00;;;;2080733;28;20220;-47
2022/03/24 03:48:53;;;;;;;13.50;12.30;;;;;20.90;101704.00;;;;2081272;28;20658;-47
2022/03/24 03:49:53;;;;;;;13.63;12.43;;;;;20.90;101716.00;;;;2080430;28;20344;-47
2022/03/24 03:50:54;;;;;;;14.30;13.00;;;;;20.90;101711.00;;;;2080490;28;20218;-47
2022/03/24 03:51:55;;;;;;;13.83;12.57;;;;;20.80;101717.00;;;;2073721;28;20237;-47
2022/03/24 03:52:55;;;;;;;13.73;12.43;;;;;20.80;101711.00;;;;2072052;28;20218;-47
2022/03/24 03:53:56;;;;;;;14.43;13.20;;;;;20.90;101715.00;;;;2072667;28;20880;-47
2022/03/24 03:54:56;;;;;;;15.37;13.87;;;;;20.80;101721.00;;;;2072990;28;20305;-47
2022/03/24 03:55:56;;;;;;;13.30;12.10;;;;;20.80;101718.00;;;;2072075;28;20253;-48
2022/03/24 03:56:58;;;;;;;13.27;12.07;;;;;20.80;101713.00;;;;2072590;28;20210;-47
2022/03/24 03:57:58;;;;;;;13.95;12.65;;;;;20.80;101716.00;;;;2076452;28;20267;-47
2022/03/24 03:58:58;;;;;;;13.17;11.97;;;;;20.80;101716.00;;;;2072840;28;20241;-47
2022/03/24 04:00:52;;;;;;;14.00;12.70;;;;;20.80;101716.00;;;;2073080;28;20252;-46
2022/03/24 04:01:19;;;;;;;13.10;11.90;;;;;20.80;101718.00;;;;2078482;28;20209;-46
2022/03/24 04:02:19;;;;;;;13.07;11.87;;;;;20.80;101720.00;;;;2076916;28;20260;-47
2022/03/24 04:03:20;;;;;;;13.07;11.83;;;;;20.80;101717.00;;;;2072364;28;20214;-47
2022/03/24 04:04:20;;;;;;;14.83;13.43;;;;;20.80;101725.00;;;;2072135;28;20757;-47
2022/03/24 04:05:25;;;;;;;14.53;13.20;;;;;20.80;101710.00;;;;2070732;28;20229;-47
2022/03/24 04:06:25;;;;;;;13.90;12.60;;;;;20.80;101719.00;;;;2070966;28;20907;-47
2022/03/24 04:07:26;;;;;;;12.90;11.80;;;;;20.80;101719.00;;;;2072226;28;20210;-47
2022/03/24 04:08:29;;;;;;;13.67;12.47;;;;;20.80;101719.00;;;;2071503;28;20260;-47
2022/03/24 04:09:29;;;;;;;13.23;11.93;;;;;20.80;101669.00;;;;2072067;28;20235;-47
2022/03/24 04:10:30;;;;;;;13.60;12.30;;;;;20.80;101723.00;;;;2071748;28;20832;-48
2022/03/24 04:11:30;;;;;;;14.73;13.43;;;;;20.80;101720.00;;;;2071409;28;20570;-47
2022/03/24 04:12:31;;;;;;;13.00;11.77;;;;;20.80;101712.00;;;;2072251;28;20610;-48
2022/03/24 04:13:31;;;;;;;13.80;12.60;;;;;20.80;101716.00;;;;2071765;28;20522;-48
2022/03/24 04:14:32;;;;;;;13.37;12.17;;;;;20.80;101717.00;;;;2072067;28;20210;-47
2022/03/24 04:15:33;;;;;;;13.60;12.50;;;;;20.80;101722.00;;;;2079746;28;20225;-47
2022/03/24 04:16:33;;;;;;;13.90;12.63;;;;;20.80;101717.00;;;;2078010;28;20454;-47
2022/03/24 04:17:33;;;;;;;13.17;12.00;;;;;20.80;101720.00;;;;2072162;28;21300;-47
2022/03/24 04:18:34;;;;;;;13.00;11.80;;;;;20.80;101718.00;;;;2072161;28;20575;-47
2022/03/24 04:19:34;;;;;;;14.43;13.03;;;;;20.80;101726.00;;;;2073203;28;20636;-47
2022/03/24 04:20:34;;;;;;;13.63;11.87;;;;;20.80;101710.00;;;;2080050;28;20277;-47
2022/03/24 04:21:35;;;;;;;14.73;13.50;;;;;20.70;101709.00;;;;2080268;28;20555;-47
2022/03/24 04:22:35;;;;;;;13.83;11.77;;;;;20.80;101722.00;;;;2072452;28;20218;-47
2022/03/24 04:23:37;;;;;;;13.30;12.10;;;;;20.80;101718.00;;;;2076960;28;20209;-47
2022/03/24 04:24:37;;;;;;;13.07;11.98;;;;;20.80;101715.00;;;;2078396;28;20753;-48
2022/03/24 04:25:37;;;;;;;13.03;11.93;;;;;20.80;101722.00;;;;2071523;28;20218;-47
2022/03/24 04:26:38;;;;;;;13.00;11.80;;;;;20.80;101712.00;;;;2071815;28;20273;-48
2022/03/24 04:27:38;;;;;;;14.07;12.80;;;;;20.80;101716.00;;;;2072278;28;20222;-47
2022/03/24 04:28:39;;;;;;;13.30;11.90;;;;;20.80;101711.00;;;;2072941;28;20287;-47
2022/03/24 04:29:39;;;;;;;13.97;12.70;;;;;20.80;101715.00;;;;2072585;28;20222;-47
2022/03/24 04:30:40;;;;;;;13.87;12.57;;;;;20.80;101719.00;;;;2072781;28;20497;-47
2022/03/24 04:31:40;;;;;;;13.50;12.30;;;;;20.80;101723.00;;;;2072697;28;20218;-47
2022/03/24 04:32:41;;;;;;;13.50;12.27;;;;;20.70;101719.00;;;;2073041;28;20221;-47
2022/03/24 04:33:41;;;;;;;12.55;11.45;;;;;20.80;101723.00;;;;2078378;28;20218;-47
2022/03/24 04:34:42;;;;;;;13.17;12.03;;;;;20.80;101721.00;;;;2079647;28;20201;-47
2022/03/24 04:35:42;;;;;;;13.27;12.13;;;;;20.80;101716.00;;;;2079183;28;20205;-48
2022/03/24 04:36:42;;;;;;;13.77;12.37;;;;;20.80;101726.00;;;;2079539;28;20236;-48
2022/03/24 04:37:43;;;;;;;13.37;12.10;;;;;20.70;101724.00;;;;2079526;28;20236;-47
2022/03/24 04:38:43;;;;;;;14.10;11.73;;;;;20.70;101723.00;;;;2075614;28;20214;-48
2022/03/24 04:39:43;;;;;;;13.60;12.40;;;;;20.70;101716.00;;;;2071641;28;20256;-47
2022/03/24 04:40:44;;;;;;;14.13;12.90;;;;;20.80;101724.00;;;;2071628;28;20213;-48
2022/03/24 04:41:44;;;;;;;13.93;12.63;;;;;20.70;101718.00;;;;2071742;28;20242;-47
2022/03/24 04:42:50;;;;;;;13.27;12.07;;;;;20.70;101721.00;;;;2071797;28;20222;-48
2022/03/24 04:43:51;;;;;;;12.60;11.50;;;;;20.70;101720.00;;;;2071511;28;20221;-49
2022/03/24 04:44:51;;;;;;;13.00;11.80;;;;;20.70;101720.00;;;;2071032;28;20218;-49
2022/03/24 04:45:52;;;;;;;13.63;12.43;;;;;20.70;101716.00;;;;2070928;28;20456;-49
2022/03/24 04:46:52;;;;;;;14.07;12.73;;;;;20.70;101728.00;;;;2078165;28;20295;-48
2022/03/24 04:47:53;;;;;;;13.20;12.00;;;;;20.70;101721.00;;;;2071397;28;20206;-49
2022/03/24 04:48:53;;;;;;;13.97;12.70;;;;;20.70;101705.00;;;;2076640;28;20217;-48
2022/03/24 04:49:55;;;;;;;13.75;12.45;;;;;20.70;101725.00;;;;2078981;28;20279;-49
2022/03/24 04:50:55;;;;;;;12.87;11.57;;;;;20.70;101724.00;;;;2079001;28;20869;-48
2022/03/24 04:51:55;;;;;;;12.13;11.03;;;;;20.70;101721.00;;;;2071341;28;20761;-48
2022/03/24 04:52:56;;;;;;;13.57;12.27;;;;;20.70;101720.00;;;;2071726;28;20690;-48
2022/03/24 04:53:57;;;;;;;13.70;12.40;;;;;20.70;101724.00;;;;2071464;28;20302;-48